sensor_id;sensor_type;location;lat;lon;timestamp;pressure;altitude;pressure_sealevel;temperature;humidity
61035;BME280;46916;40.564;-7.958;2023-09-19T00:01:55;97774.84;;;17.02;80.02
61035;BME280;46916;40.564;-7.958;2023-09-19T00:03:57;97778.63;;;17.00;79.98
61035;BME280;46916;40.564;-7.958;2023-09-19T00:05:59;97773.50;;;16.98;80.17
61035;BME280;46916;40.564;-7.958;2023-09-19T00:08:00;97766.22;;;17.00;79.97
61035;BME280;46916;40.564;-7.958;2023-09-19T00:10:04;97764.91;;;17.04;80.02
61035;BME280;46916;40.564;-7.958;2023-09-19T00:12:06;97764.59;;;17.07;79.76
61035;BME280;46916;40.564;-7.958;2023-09-19T00:14:09;97754.31;;;17.04;79.95
61035;BME280;46916;40.564;-7.958;2023-09-19T00:16:11;97756.97;;;17.04;79.90
61035;BME280;46916;40.564;-7.958;2023-09-19T00:18:11;97757.78;;;17.05;79.84
61035;BME280;46916;40.564;-7.958;2023-09-19T00:20:14;97748.19;;;17.04;79.63
61035;BME280;46916;40.564;-7.958;2023-09-19T00:22:17;97753.50;;;17.04;79.66
61035;BME280;46916;40.564;-7.958;2023-09-19T00:24:19;97751.66;;;17.04;79.42
61035;BME280;46916;40.564;-7.958;2023-09-19T00:26:20;97746.56;;;17.03;79.73
61035;BME280;46916;40.564;-7.958;2023-09-19T00:28:23;97758.78;;;17.04;79.67
61035;BME280;46916;40.564;-7.958;2023-09-19T00:30:23;97765.06;;;17.03;79.90
61035;BME280;46916;40.564;-7.958;2023-09-19T00:32:24;97767.72;;;17.03;80.13
61035;BME280;46916;40.564;-7.958;2023-09-19T00:34:25;97762.44;;;17.03;80.20
61035;BME280;46916;40.564;-7.958;2023-09-19T00:36:26;97764.22;;;16.94;80.51
61035;BME280;46916;40.564;-7.958;2023-09-19T00:38:26;97762.56;;;16.93;80.46
61035;BME280;46916;40.564;-7.958;2023-09-19T00:40:27;97755.44;;;16.94;80.44
61035;BME280;46916;40.564;-7.958;2023-09-19T00:42:28;97755.78;;;16.91;80.14
61035;BME280;46916;40.564;-7.958;2023-09-19T00:44:29;97751.94;;;16.85;79.96
61035;BME280;46916;40.564;-7.958;2023-09-19T00:46:32;97766.84;;;16.86;80.23
61035;BME280;46916;40.564;-7.958;2023-09-19T00:48:40;97764.34;;;16.84;80.54
61035;BME280;46916;40.564;-7.958;2023-09-19T00:50:45;97771.28;;;16.86;80.73
61035;BME280;46916;40.564;-7.958;2023-09-19T00:52:55;97760.72;;;16.86;80.70
61035;BME280;46916;40.564;-7.958;2023-09-19T00:54:58;97761.56;;;16.86;80.63
61035;BME280;46916;40.564;-7.958;2023-09-19T00:57:00;97770.31;;;16.87;80.64
61035;BME280;46916;40.564;-7.958;2023-09-19T00:59:01;97761.56;;;16.86;80.67
61035;BME280;46916;40.564;-7.958;2023-09-19T01:01:02;97762.38;;;16.87;80.79
61035;BME280;46916;40.564;-7.958;2023-09-19T01:03:10;97760.56;;;16.87;80.96
61035;BME280;46916;40.564;-7.958;2023-09-19T01:05:11;97753.78;;;16.84;80.79
61035;BME280;46916;40.564;-7.958;2023-09-19T01:07:13;97760.88;;;16.84;80.79
61035;BME280;46916;40.564;-7.958;2023-09-19T01:09:15;97764.34;;;16.84;80.49
61035;BME280;46916;40.564;-7.958;2023-09-19T01:11:21;97753.94;;;16.83;80.26
61035;BME280;46916;40.564;-7.958;2023-09-19T01:13:33;97757.72;;;16.80;80.38
61035;BME280;46916;40.564;-7.958;2023-09-19T01:18:03;97757.22;;;16.77;80.57
61035;BME280;46916;40.564;-7.958;2023-09-19T01:22:48;97754.75;;;16.75;80.57
61035;BME280;46916;40.564;-7.958;2023-09-19T01:29:48;97743.34;;;16.75;80.27
61035;BME280;46916;40.564;-7.958;2023-09-19T01:31:49;97735.03;;;16.70;80.57
61035;BME280;46916;40.564;-7.958;2023-09-19T01:33:56;97736.50;;;16.64;80.97
61035;BME280;46916;40.564;-7.958;2023-09-19T01:35:57;97737.75;;;16.52;81.21
61035;BME280;46916;40.564;-7.958;2023-09-19T01:37:58;97733.63;;;16.41;81.68
61035;BME280;46916;40.564;-7.958;2023-09-19T01:40:04;97730.41;;;16.29;82.14
61035;BME280;46916;40.564;-7.958;2023-09-19T01:45:13;97732.00;;;16.14;83.25
61035;BME280;46916;40.564;-7.958;2023-09-19T01:47:28;97732.81;;;16.15;83.22
61035;BME280;46916;40.564;-7.958;2023-09-19T01:49:46;97728.88;;;16.19;82.79
61035;BME280;46916;40.564;-7.958;2023-09-19T01:53:59;97723.94;;;16.24;82.43
61035;BME280;46916;40.564;-7.958;2023-09-19T01:56:05;97716.81;;;16.24;82.20
61035;BME280;46916;40.564;-7.958;2023-09-19T01:58:15;97716.69;;;16.26;82.19
61035;BME280;46916;40.564;-7.958;2023-09-19T02:00:19;97713.31;;;16.16;81.51
61035;BME280;46916;40.564;-7.958;2023-09-19T02:02:22;97704.00;;;16.03;81.90
61035;BME280;46916;40.564;-7.958;2023-09-19T02:04:24;97714.06;;;16.00;82.05
61035;BME280;46916;40.564;-7.958;2023-09-19T02:06:25;97705.59;;;15.88;82.47
61035;BME280;46916;40.564;-7.958;2023-09-19T02:08:25;97711.53;;;15.90;82.82
61035;BME280;46916;40.564;-7.958;2023-09-19T02:10:26;97712.38;;;15.91;82.56
61035;BME280;46916;40.564;-7.958;2023-09-19T02:12:27;97707.59;;;15.94;82.88
61035;BME280;46916;40.564;-7.958;2023-09-19T02:14:27;97704.34;;;16.00;82.56
61035;BME280;46916;40.564;-7.958;2023-09-19T02:16:29;97702.72;;;16.07;82.39
61035;BME280;46916;40.564;-7.958;2023-09-19T02:18:30;97707.38;;;16.14;81.96
61035;BME280;46916;40.564;-7.958;2023-09-19T02:20:31;97700.81;;;16.18;81.75
61035;BME280;46916;40.564;-7.958;2023-09-19T02:22:32;97697.84;;;16.21;81.80
61035;BME280;46916;40.564;-7.958;2023-09-19T02:24:33;97699.31;;;16.23;81.56
61035;BME280;46916;40.564;-7.958;2023-09-19T02:26:34;97693.91;;;16.25;81.36
61035;BME280;46916;40.564;-7.958;2023-09-19T02:28:37;97698.34;;;16.24;81.38
61035;BME280;46916;40.564;-7.958;2023-09-19T02:30:37;97700.84;;;16.26;81.42
61035;BME280;46916;40.564;-7.958;2023-09-19T02:32:38;97684.47;;;16.22;81.14
61035;BME280;46916;40.564;-7.958;2023-09-19T02:34:39;97689.91;;;16.21;81.36
61035;BME280;46916;40.564;-7.958;2023-09-19T02:36:39;97692.88;;;16.18;81.23
61035;BME280;46916;40.564;-7.958;2023-09-19T02:38:40;97688.88;;;16.14;81.15
61035;BME280;46916;40.564;-7.958;2023-09-19T02:40:40;97685.38;;;16.05;81.58
61035;BME280;46916;40.564;-7.958;2023-09-19T02:42:43;97684.69;;;16.03;81.59
61035;BME280;46916;40.564;-7.958;2023-09-19T02:44:47;97688.16;;;16.03;81.53
61035;BME280;46916;40.564;-7.958;2023-09-19T02:46:48;97687.81;;;15.98;81.69
61035;BME280;46916;40.564;-7.958;2023-09-19T02:48:49;97694.06;;;15.89;81.80
61035;BME280;46916;40.564;-7.958;2023-09-19T02:50:50;97687.72;;;15.82;82.25
61035;BME280;46916;40.564;-7.958;2023-09-19T02:52:51;97690.69;;;15.79;82.22
61035;BME280;46916;40.564;-7.958;2023-09-19T02:54:52;97689.38;;;15.83;82.27
61035;BME280;46916;40.564;-7.958;2023-09-19T02:56:52;97693.38;;;15.87;82.20
61035;BME280;46916;40.564;-7.958;2023-09-19T02:58:54;97694.06;;;15.89;82.22
61035;BME280;46916;40.564;-7.958;2023-09-19T03:00:56;97691.09;;;15.92;81.91
61035;BME280;46916;40.564;-7.958;2023-09-19T03:02:57;97684.00;;;15.93;81.50
61035;BME280;46916;40.564;-7.958;2023-09-19T03:05:00;97688.78;;;15.89;81.50
61035;BME280;46916;40.564;-7.958;2023-09-19T03:07:03;97677.69;;;15.85;81.41
61035;BME280;46916;40.564;-7.958;2023-09-19T03:09:05;97681.31;;;15.84;81.31
61035;BME280;46916;40.564;-7.958;2023-09-19T03:11:12;97674.34;;;15.83;81.21
61035;BME280;46916;40.564;-7.958;2023-09-19T03:13:18;97675.22;;;15.84;81.18
61035;BME280;46916;40.564;-7.958;2023-09-19T03:15:18;97671.41;;;15.87;80.85
61035;BME280;46916;40.564;-7.958;2023-09-19T03:17:20;97666.28;;;15.85;80.76
61035;BME280;46916;40.564;-7.958;2023-09-19T03:19:21;97671.41;;;15.87;80.80
61035;BME280;46916;40.564;-7.958;2023-09-19T03:21:25;97669.25;;;15.82;80.91
61035;BME280;46916;40.564;-7.958;2023-09-19T03:23:27;97669.25;;;15.82;80.76
61035;BME280;46916;40.564;-7.958;2023-09-19T03:25:27;97659.66;;;15.81;80.79
61035;BME280;46916;40.564;-7.958;2023-09-19T03:27:29;97667.13;;;15.85;80.49
61035;BME280;46916;40.564;-7.958;2023-09-19T03:29:29;97658.03;;;15.80;80.60
61035;BME280;46916;40.564;-7.958;2023-09-19T03:31:31;97655.47;;;15.70;80.75
61035;BME280;46916;40.564;-7.958;2023-09-19T03:33:32;97653.44;;;15.64;81.28
61035;BME280;46916;40.564;-7.958;2023-09-19T03:35:34;97652.75;;;15.62;81.40
61035;BME280;46916;40.564;-7.958;2023-09-19T03:37:36;97652.75;;;15.62;81.58
61035;BME280;46916;40.564;-7.958;2023-09-19T03:39:36;97649.03;;;15.65;81.58
61035;BME280;46916;40.564;-7.958;2023-09-19T03:41:37;97646.22;;;15.66;81.50
61035;BME280;46916;40.564;-7.958;2023-09-19T03:43:39;97649.19;;;15.71;81.18
61035;BME280;46916;40.564;-7.958;2023-09-19T03:45:40;97648.06;;;15.74;81.02
61035;BME280;46916;40.564;-7.958;2023-09-19T03:47:42;97648.91;;;15.74;80.85
61035;BME280;46916;40.564;-7.958;2023-09-19T03:49:44;97650.53;;;15.75;81.09
61035;BME280;46916;40.564;-7.958;2023-09-19T03:51:45;97649.41;;;15.78;81.04
61035;BME280;46916;40.564;-7.958;2023-09-19T03:53:47;97650.72;;;15.74;80.88
61035;BME280;46916;40.564;-7.958;2023-09-19T03:55:50;97644.09;;;15.70;81.22
61035;BME280;46916;40.564;-7.958;2023-09-19T03:57:51;97644.25;;;15.68;81.07
61035;BME280;46916;40.564;-7.958;2023-09-19T03:59:53;97642.88;;;15.64;81.24
61035;BME280;46916;40.564;-7.958;2023-09-19T04:01:54;97649.28;;;15.61;81.43
61035;BME280;46916;40.564;-7.958;2023-09-19T04:03:57;97651.75;;;15.63;81.26
61035;BME280;46916;40.564;-7.958;2023-09-19T04:05:58;97652.63;;;15.64;81.07
61035;BME280;46916;40.564;-7.958;2023-09-19T04:07:58;97645.66;;;15.63;81.02
61035;BME280;46916;40.564;-7.958;2023-09-19T04:09:59;97650.75;;;15.56;81.01
61035;BME280;46916;40.564;-7.958;2023-09-19T04:12:01;97649.41;;;15.52;81.33
61035;BME280;46916;40.564;-7.958;2023-09-19T04:14:03;97648.59;;;15.51;81.07
61035;BME280;46916;40.564;-7.958;2023-09-19T04:16:04;97643.31;;;15.51;81.07
61035;BME280;46916;40.564;-7.958;2023-09-19T04:18:07;97639.69;;;15.52;80.72
61035;BME280;46916;40.564;-7.958;2023-09-19T04:20:08;97638.38;;;15.56;80.48
61035;BME280;46916;40.564;-7.958;2023-09-19T04:22:09;97637.09;;;15.60;80.19
61035;BME280;46916;40.564;-7.958;2023-09-19T04:24:11;97648.31;;;15.63;80.27
61035;BME280;46916;40.564;-7.958;2023-09-19T04:26:13;97645.00;;;15.60;80.12
61035;BME280;46916;40.564;-7.958;2023-09-19T04:28:16;97642.66;;;15.57;80.34
61035;BME280;46916;40.564;-7.958;2023-09-19T04:30:17;97641.31;;;15.53;80.58
61035;BME280;46916;40.564;-7.958;2023-09-19T04:32:18;97642.91;;;15.46;80.77
61035;BME280;46916;40.564;-7.958;2023-09-19T04:34:18;97646.31;;;15.39;80.96
61035;BME280;46916;40.564;-7.958;2023-09-19T04:36:19;97638.53;;;15.29;80.66
61035;BME280;46916;40.564;-7.958;2023-09-19T04:38:21;97635.22;;;15.27;80.68
61035;BME280;46916;40.564;-7.958;2023-09-19T04:40:22;97643.97;;;15.27;80.33
61035;BME280;46916;40.564;-7.958;2023-09-19T04:42:23;97642.16;;;15.28;80.27
61035;BME280;46916;40.564;-7.958;2023-09-19T04:44:25;97641.16;;;15.29;79.95
61035;BME280;46916;40.564;-7.958;2023-09-19T04:46:26;97638.69;;;15.27;80.15
61035;BME280;46916;40.564;-7.958;2023-09-19T04:48:27;97635.53;;;15.24;80.13
61035;BME280;46916;40.564;-7.958;2023-09-19T04:50:29;97637.00;;;15.26;80.24
61035;BME280;46916;40.564;-7.958;2023-09-19T04:52:30;97636.06;;;15.27;80.31
61035;BME280;46916;40.564;-7.958;2023-09-19T04:54:33;97625.78;;;15.24;80.46
61035;BME280;46916;40.564;-7.958;2023-09-19T04:56:34;97626.78;;;15.23;80.77
61035;BME280;46916;40.564;-7.958;2023-09-19T04:58:35;97626.91;;;15.22;80.67
61035;BME280;46916;40.564;-7.958;2023-09-19T05:00:35;97626.09;;;15.21;80.87
61035;BME280;46916;40.564;-7.958;2023-09-19T05:02:36;97634.69;;;15.23;80.85
61035;BME280;46916;40.564;-7.958;2023-09-19T05:04:37;97630.09;;;15.25;81.02
61035;BME280;46916;40.564;-7.958;2023-09-19T05:06:39;97621.03;;;15.28;81.05
61035;BME280;46916;40.564;-7.958;2023-09-19T05:08:39;97625.84;;;15.32;80.79
61035;BME280;46916;40.564;-7.958;2023-09-19T05:10:40;97628.03;;;15.37;80.31
61035;BME280;46916;40.564;-7.958;2023-09-19T05:12:41;97624.25;;;15.40;80.20
61035;BME280;46916;40.564;-7.958;2023-09-19T05:14:42;97622.91;;;15.35;80.55
61035;BME280;46916;40.564;-7.958;2023-09-19T05:16:42;97623.22;;;15.32;80.22
61035;BME280;46916;40.564;-7.958;2023-09-19T05:18:43;97620.06;;;15.29;80.43
61035;BME280;46916;40.564;-7.958;2023-09-19T05:20:44;97619.41;;;15.27;80.51
61035;BME280;46916;40.564;-7.958;2023-09-19T05:22:44;97618.69;;;15.25;80.19
61035;BME280;46916;40.564;-7.958;2023-09-19T05:24:46;97617.00;;;15.16;80.48
61035;BME280;46916;40.564;-7.958;2023-09-19T05:26:50;97625.22;;;15.13;80.30
61035;BME280;46916;40.564;-7.958;2023-09-19T05:28:50;97620.88;;;15.03;80.56
61035;BME280;46916;40.564;-7.958;2023-09-19T05:30:51;97626.44;;;15.00;80.97
61035;BME280;46916;40.564;-7.958;2023-09-19T05:32:53;97633.69;;;14.98;80.91
61035;BME280;46916;40.564;-7.958;2023-09-19T05:34:55;97633.81;;;14.97;81.08
61035;BME280;46916;40.564;-7.958;2023-09-19T05:36:56;97633.47;;;14.92;81.17
61035;BME280;46916;40.564;-7.958;2023-09-19T05:38:57;97636.75;;;14.94;81.23
61035;BME280;46916;40.564;-7.958;2023-09-19T05:40:57;97641.06;;;14.95;81.17
61035;BME280;46916;40.564;-7.958;2023-09-19T05:42:58;97635.41;;;14.90;81.24
61035;BME280;46916;40.564;-7.958;2023-09-19T05:44:59;97639.19;;;14.87;81.57
61035;BME280;46916;40.564;-7.958;2023-09-19T05:46:59;97639.47;;;14.84;81.80
61035;BME280;46916;40.564;-7.958;2023-09-19T05:49:00;97640.47;;;14.83;82.03
61035;BME280;46916;40.564;-7.958;2023-09-19T05:51:01;97634.66;;;14.79;82.31
61035;BME280;46916;40.564;-7.958;2023-09-19T05:53:01;97641.97;;;14.85;82.52
61035;BME280;46916;40.564;-7.958;2023-09-19T05:55:05;97640.84;;;14.88;82.35
61035;BME280;46916;40.564;-7.958;2023-09-19T05:57:07;97647.47;;;14.92;82.24
61035;BME280;46916;40.564;-7.958;2023-09-19T05:59:08;97649.13;;;14.93;82.13
61035;BME280;46916;40.564;-7.958;2023-09-19T06:01:09;97641.38;;;14.92;81.95
61035;BME280;46916;40.564;-7.958;2023-09-19T06:03:10;97654.09;;;14.96;82.09
61035;BME280;46916;40.564;-7.958;2023-09-19T06:05:13;97651.16;;;14.99;81.83
61035;BME280;46916;40.564;-7.958;2023-09-19T06:07:15;97653.50;;;15.02;81.81
61035;BME280;46916;40.564;-7.958;2023-09-19T06:09:16;97646.88;;;14.98;81.73
61035;BME280;46916;40.564;-7.958;2023-09-19T06:11:17;97658.09;;;15.00;81.58
61035;BME280;46916;40.564;-7.958;2023-09-19T06:13:20;97655.00;;;15.05;81.66
61035;BME280;46916;40.564;-7.958;2023-09-19T06:15:21;97645.94;;;15.07;81.55
61035;BME280;46916;40.564;-7.958;2023-09-19T06:17:25;97648.28;;;15.10;81.24
61035;BME280;46916;40.564;-7.958;2023-09-19T06:19:27;97648.44;;;15.09;81.45
61035;BME280;46916;40.564;-7.958;2023-09-19T06:21:28;97658.84;;;15.10;81.52
61035;BME280;46916;40.564;-7.958;2023-09-19T06:23:28;97653.25;;;15.14;81.26
61035;BME280;46916;40.564;-7.958;2023-09-19T06:25:29;97657.84;;;15.11;81.32
61035;BME280;46916;40.564;-7.958;2023-09-19T06:27:30;97653.41;;;15.12;81.42
61035;BME280;46916;40.564;-7.958;2023-09-19T06:29:30;97657.84;;;15.11;81.21
61035;BME280;46916;40.564;-7.958;2023-09-19T06:31:31;97656.03;;;15.12;80.88
61035;BME280;46916;40.564;-7.958;2023-09-19T06:33:31;97656.88;;;15.13;80.46
61035;BME280;46916;40.564;-7.958;2023-09-19T06:35:33;97659.81;;;15.09;80.35
61035;BME280;46916;40.564;-7.958;2023-09-19T06:37:34;97658.97;;;15.09;80.42
61035;BME280;46916;40.564;-7.958;2023-09-19T06:39:34;97659.50;;;15.13;80.41
61035;BME280;46916;40.564;-7.958;2023-09-19T06:41:35;97666.13;;;15.17;80.44
61035;BME280;46916;40.564;-7.958;2023-09-19T06:43:44;97664.19;;;15.19;80.27
61035;BME280;46916;40.564;-7.958;2023-09-19T06:45:45;97664.31;;;15.17;80.19
61035;BME280;46916;40.564;-7.958;2023-09-19T06:47:46;97661.53;;;15.19;80.05
61035;BME280;46916;40.564;-7.958;2023-09-19T06:49:50;97669.47;;;15.19;80.15
61035;BME280;46916;40.564;-7.958;2023-09-19T06:51:54;97666.75;;;15.10;80.64
61035;BME280;46916;40.564;-7.958;2023-09-19T06:53:55;97661.47;;;15.10;80.73
61035;BME280;46916;40.564;-7.958;2023-09-19T06:55:58;97665.59;;;15.13;80.91
61035;BME280;46916;40.564;-7.958;2023-09-19T06:57:58;97665.84;;;15.20;80.95
61035;BME280;46916;40.564;-7.958;2023-09-19T06:59:59;97657.97;;;15.28;80.64
61035;BME280;46916;40.564;-7.958;2023-09-19T07:02:01;97658.81;;;15.28;80.46
61035;BME280;46916;40.564;-7.958;2023-09-19T07:04:03;97655.34;;;15.28;80.59
61035;BME280;46916;40.564;-7.958;2023-09-19T07:06:03;97661.91;;;15.24;80.40
61035;BME280;46916;40.564;-7.958;2023-09-19T07:08:06;97661.53;;;15.19;80.52
61035;BME280;46916;40.564;-7.958;2023-09-19T07:10:07;97657.41;;;15.16;80.80
61035;BME280;46916;40.564;-7.958;2023-09-19T07:12:11;97660.84;;;15.17;81.18
61035;BME280;46916;40.564;-7.958;2023-09-19T07:14:12;97659.94;;;15.26;80.83
61035;BME280;46916;40.564;-7.958;2023-09-19T07:16:13;97658.41;;;15.41;80.20
61035;BME280;46916;40.564;-7.958;2023-09-19T07:18:27;97655.03;;;15.57;79.66
61035;BME280;46916;40.564;-7.958;2023-09-19T07:20:28;97657.97;;;15.72;78.93
61035;BME280;46916;40.564;-7.958;2023-09-19T07:22:31;97655.72;;;15.85;78.23
61035;BME280;46916;40.564;-7.958;2023-09-19T07:24:32;97662.91;;;16.01;77.90
61035;BME280;46916;40.564;-7.958;2023-09-19T07:26:33;97666.75;;;16.15;77.13
61035;BME280;46916;40.564;-7.958;2023-09-19T07:28:34;97659.19;;;16.28;76.91
61035;BME280;46916;40.564;-7.958;2023-09-19T07:30:37;97665.84;;;16.40;76.49
61035;BME280;46916;40.564;-7.958;2023-09-19T07:32:38;97666.88;;;16.47;76.20
61035;BME280;46916;40.564;-7.958;2023-09-19T07:34:39;97666.88;;;16.55;76.05
61035;BME280;46916;40.564;-7.958;2023-09-19T07:36:41;97660.47;;;16.58;75.95
61035;BME280;46916;40.564;-7.958;2023-09-19T07:38:42;97667.09;;;16.70;75.43
61035;BME280;46916;40.564;-7.958;2023-09-19T07:40:43;97660.34;;;16.76;75.04
61035;BME280;46916;40.564;-7.958;2023-09-19T07:42:44;97662.38;;;16.82;74.36
61035;BME280;46916;40.564;-7.958;2023-09-19T07:44:47;97666.47;;;16.76;74.20
61035;BME280;46916;40.564;-7.958;2023-09-19T07:46:51;97669.44;;;16.73;74.63
61035;BME280;46916;40.564;-7.958;2023-09-19T07:48:52;97664.66;;;16.77;74.82
61035;BME280;46916;40.564;-7.958;2023-09-19T07:50:53;97661.88;;;16.87;74.70
61035;BME280;46916;40.564;-7.958;2023-09-19T07:52:55;97665.66;;;16.92;74.68
61035;BME280;46916;40.564;-7.958;2023-09-19T07:54:56;97655.75;;;17.02;74.54
61035;BME280;46916;40.564;-7.958;2023-09-19T07:56:57;97668.00;;;17.12;74.42
61035;BME280;46916;40.564;-7.958;2023-09-19T07:59:00;97664.19;;;17.22;74.10
61035;BME280;46916;40.564;-7.958;2023-09-19T08:01:08;97667.69;;;17.31;73.90
61035;BME280;46916;40.564;-7.958;2023-09-19T08:03:09;97664.16;;;17.39;73.67
61035;BME280;46916;40.564;-7.958;2023-09-19T08:05:14;97665.47;;;17.51;73.55
61035;BME280;46916;40.564;-7.958;2023-09-19T08:07:18;97666.78;;;17.63;73.50
61035;BME280;46916;40.564;-7.958;2023-09-19T08:09:19;97671.91;;;17.73;73.30
61035;BME280;46916;40.564;-7.958;2023-09-19T08:11:21;97666.78;;;17.79;72.90
61035;BME280;46916;40.564;-7.958;2023-09-19T08:13:25;97667.94;;;17.85;72.91
61035;BME280;46916;40.564;-7.958;2023-09-19T08:15:26;97661.94;;;17.91;72.64
61035;BME280;46916;40.564;-7.958;2023-09-19T08:17:28;97664.75;;;17.98;72.54
61035;BME280;46916;40.564;-7.958;2023-09-19T08:19:29;97669.53;;;18.02;72.64
61035;BME280;46916;40.564;-7.958;2023-09-19T08:21:32;97669.19;;;18.05;72.54
61035;BME280;46916;40.564;-7.958;2023-09-19T08:23:33;97661.91;;;18.07;72.59
61035;BME280;46916;40.564;-7.958;2023-09-19T08:25:34;97669.31;;;18.12;72.42
61035;BME280;46916;40.564;-7.958;2023-09-19T08:27:34;97661.88;;;18.16;72.61
61035;BME280;46916;40.564;-7.958;2023-09-19T08:29:36;97660.19;;;18.23;72.51
61035;BME280;46916;40.564;-7.958;2023-09-19T08:31:37;97657.31;;;18.32;72.52
61035;BME280;46916;40.564;-7.958;2023-09-19T08:33:37;97664.78;;;18.37;72.54
61035;BME280;46916;40.564;-7.958;2023-09-19T08:35:38;97666.06;;;18.41;72.56
61035;BME280;46916;40.564;-7.958;2023-09-19T08:37:40;97664.38;;;18.48;72.28
61035;BME280;46916;40.564;-7.958;2023-09-19T08:39:40;97664.97;;;18.59;72.43
61035;BME280;46916;40.564;-7.958;2023-09-19T08:41:41;97663.44;;;18.64;72.59
61035;BME280;46916;40.564;-7.958;2023-09-19T08:43:42;97668.91;;;18.71;72.61
61035;BME280;46916;40.564;-7.958;2023-09-19T08:45:43;97669.03;;;18.77;72.67
61035;BME280;46916;40.564;-7.958;2023-09-19T08:48:00;97668.53;;;18.82;72.65
61035;BME280;46916;40.564;-7.958;2023-09-19T08:50:04;97667.00;;;18.88;72.60
61035;BME280;46916;40.564;-7.958;2023-09-19T08:52:24;97665.44;;;18.93;72.05
61035;BME280;46916;40.564;-7.958;2023-09-19T08:54:29;97667.41;;;18.99;71.57
61035;BME280;46916;40.564;-7.958;2023-09-19T08:56:33;97665.22;;;19.03;71.54
61035;BME280;46916;40.564;-7.958;2023-09-19T08:58:41;97667.06;;;19.02;71.38
61035;BME280;46916;40.564;-7.958;2023-09-19T09:00:47;97668.22;;;19.00;71.22
61035;BME280;46916;40.564;-7.958;2023-09-19T09:02:49;97664.91;;;18.98;70.13
61035;BME280;46916;40.564;-7.958;2023-09-19T09:04:51;97656.72;;;18.85;69.40
61035;BME280;46916;40.564;-7.958;2023-09-19T09:06:53;97667.03;;;18.79;69.86
61035;BME280;46916;40.564;-7.958;2023-09-19T09:08:55;97666.38;;;18.77;69.10
61035;BME280;46916;40.564;-7.958;2023-09-19T09:10:56;97665.25;;;18.72;69.68
61035;BME280;46916;40.564;-7.958;2023-09-19T09:12:58;97670.88;;;18.69;70.47
61035;BME280;46916;40.564;-7.958;2023-09-19T09:14:59;97664.91;;;18.75;69.50
61035;BME280;46916;40.564;-7.958;2023-09-19T09:17:01;97673.22;;;18.72;70.01
61035;BME280;46916;40.564;-7.958;2023-09-19T09:19:03;97667.28;;;18.70;70.49
61035;BME280;46916;40.564;-7.958;2023-09-19T09:21:04;97663.63;;;18.71;69.39
61035;BME280;46916;40.564;-7.958;2023-09-19T09:23:04;97671.38;;;18.72;70.31
61035;BME280;46916;40.564;-7.958;2023-09-19T09:25:06;97677.00;;;18.77;70.78
61035;BME280;46916;40.564;-7.958;2023-09-19T09:27:07;97671.34;;;18.80;71.24
61035;BME280;46916;40.564;-7.958;2023-09-19T09:29:11;97669.94;;;18.93;71.13
61035;BME280;46916;40.564;-7.958;2023-09-19T09:31:23;97676.59;;;18.89;71.44
61035;BME280;46916;40.564;-7.958;2023-09-19T09:33:25;97672.59;;;18.93;71.69
61035;BME280;46916;40.564;-7.958;2023-09-19T09:35:26;97668.56;;;18.97;70.90
61035;BME280;46916;40.564;-7.958;2023-09-19T09:37:28;97672.53;;;19.01;70.46
61035;BME280;46916;40.564;-7.958;2023-09-19T09:39:31;97674.66;;;19.05;69.75
61035;BME280;46916;40.564;-7.958;2023-09-19T09:41:36;97672.00;;;19.05;68.24
61035;BME280;46916;40.564;-7.958;2023-09-19T09:43:40;97663.03;;;19.07;68.79
61035;BME280;46916;40.564;-7.958;2023-09-19T09:45:42;97667.63;;;19.13;68.83
61035;BME280;46916;40.564;-7.958;2023-09-19T09:47:49;97667.28;;;19.16;68.42
61035;BME280;46916;40.564;-7.958;2023-09-19T09:49:56;97677.19;;;19.22;68.39
61035;BME280;46916;40.564;-7.958;2023-09-19T09:52:07;97674.84;;;19.27;66.82
61035;BME280;46916;40.564;-7.958;2023-09-19T09:54:18;97667.16;;;19.32;66.68
61035;BME280;46916;40.564;-7.958;2023-09-19T09:56:22;97664.22;;;19.27;67.35
61035;BME280;46916;40.564;-7.958;2023-09-19T09:58:23;97665.50;;;19.31;67.51
61035;BME280;46916;40.564;-7.958;2023-09-19T10:00:29;97664.66;;;19.30;67.96
61035;BME280;46916;40.564;-7.958;2023-09-19T10:02:43;97656.69;;;19.30;67.86
61035;BME280;46916;40.564;-7.958;2023-09-19T10:04:47;97657.81;;;19.36;67.45
61035;BME280;46916;40.564;-7.958;2023-09-19T10:07:06;97653.78;;;19.40;66.90
61035;BME280;46916;40.564;-7.958;2023-09-19T10:09:11;97648.47;;;19.40;66.80
61035;BME280;46916;40.564;-7.958;2023-09-19T10:11:16;97650.13;;;19.41;66.67
61035;BME280;46916;40.564;-7.958;2023-09-19T10:13:17;97655.09;;;19.44;66.90
61035;BME280;46916;40.564;-7.958;2023-09-19T10:15:23;97644.94;;;19.48;66.06
61035;BME280;46916;40.564;-7.958;2023-09-19T10:17:28;97646.38;;;19.50;64.75
61035;BME280;46916;40.564;-7.958;2023-09-19T10:19:37;97641.06;;;19.50;65.14
61035;BME280;46916;40.564;-7.958;2023-09-19T10:21:38;97642.81;;;19.58;65.61
61035;BME280;46916;40.564;-7.958;2023-09-19T10:23:40;97642.31;;;19.63;62.98
61035;BME280;46916;40.564;-7.958;2023-09-19T10:25:45;97634.53;;;19.61;63.46
61035;BME280;46916;40.564;-7.958;2023-09-19T10:27:47;97639.50;;;19.64;64.01
61035;BME280;46916;40.564;-7.958;2023-09-19T10:29:51;97634.63;;;19.68;64.50
61035;BME280;46916;40.564;-7.958;2023-09-19T10:31:58;97635.06;;;19.71;63.83
61035;BME280;46916;40.564;-7.958;2023-09-19T10:34:02;97633.44;;;19.70;63.90
61035;BME280;46916;40.564;-7.958;2023-09-19T10:36:05;97623.81;;;19.69;64.09
61035;BME280;46916;40.564;-7.958;2023-09-19T10:38:06;97628.94;;;19.71;64.59
61035;BME280;46916;40.564;-7.958;2023-09-19T10:40:09;97626.94;;;19.73;63.21
61035;BME280;46916;40.564;-7.958;2023-09-19T10:42:15;97620.81;;;19.72;62.67
61035;BME280;46916;40.564;-7.958;2023-09-19T10:44:25;97628.38;;;19.75;62.70
61035;BME280;46916;40.564;-7.958;2023-09-19T10:46:25;97626.66;;;19.83;63.64
61035;BME280;46916;40.564;-7.958;2023-09-19T10:48:26;97627.13;;;19.86;63.88
61035;BME280;46916;40.564;-7.958;2023-09-19T10:50:32;97620.78;;;19.87;62.39
61035;BME280;46916;40.564;-7.958;2023-09-19T10:52:40;97613.19;;;19.84;62.53
61035;BME280;46916;40.564;-7.958;2023-09-19T10:54:46;97621.25;;;19.91;62.13
61035;BME280;46916;40.564;-7.958;2023-09-19T10:56:52;97618.41;;;19.92;62.39